createdAt,value
2023-06-14T00:01:18.122Z,57603.38
2023-06-14T00:03:44.894Z,57532.41
2023-06-14T00:06:12.625Z,57542.84
2023-06-14T00:08:39.463Z,57563.72
2023-06-14T00:11:06.162Z,57580.41
2023-06-14T00:13:32.901Z,57547.00
2023-06-14T00:15:59.817Z,57526.13
2023-06-14T00:18:30.517Z,57549.09
2023-06-14T00:20:57.405Z,57588.75
2023-06-14T00:23:24.145Z,57592.94
2023-06-14T00:25:50.877Z,57576.22
2023-06-14T00:28:17.654Z,57530.31
2023-06-14T00:30:47.581Z,57561.63
2023-06-14T00:33:14.598Z,57549.09
2023-06-14T00:35:41.422Z,57599.19
2023-06-14T00:38:08.069Z,57536.56
2023-06-14T00:40:35.928Z,57592.94
2023-06-14T00:43:02.618Z,57561.63
2023-06-14T00:45:29.325Z,57569.97
2023-06-14T00:47:57.129Z,57542.84
2023-06-14T00:50:24.911Z,57536.56
2023-06-14T00:52:51.907Z,57542.84
2023-06-14T00:55:18.942Z,57544.94
2023-06-14T00:57:46.702Z,57549.09
2023-06-14T01:00:14.164Z,57551.19
2023-06-14T01:02:41.780Z,57532.41
2023-06-14T01:05:10.309Z,57542.84
2023-06-14T01:07:52.644Z,57547.00
2023-06-14T01:10:24.777Z,57588.75
2023-06-14T01:13:04.415Z,57530.31
2023-06-14T01:15:32.713Z,57542.84
2023-06-14T01:18:04.584Z,57551.19
2023-06-14T01:20:33.510Z,57580.41
2023-06-14T01:23:00.880Z,57584.59
2023-06-14T01:25:27.916Z,57534.50
2023-06-14T01:27:59.697Z,57559.53
2023-06-14T01:30:27.508Z,57557.44
2023-06-14T01:32:57.052Z,57572.06
2023-06-14T01:35:24.021Z,57576.22
2023-06-14T01:37:53.084Z,57555.38
2023-06-14T01:40:21.744Z,57559.53
2023-06-14T01:42:51.131Z,57542.84
2023-06-14T01:45:19.673Z,57540.75
2023-06-14T01:47:48.090Z,57576.22
2023-06-14T01:50:15.118Z,57569.97
2023-06-14T01:52:42.182Z,57551.19
2023-06-14T01:55:10.388Z,57492.75
2023-06-14T01:57:37.474Z,57532.41
2023-06-14T02:00:09.013Z,57580.41
2023-06-14T02:02:35.989Z,57526.13
2023-06-14T02:05:03.088Z,57565.81
2023-06-14T02:07:29.771Z,57565.81
2023-06-14T02:09:56.417Z,57567.88
2023-06-14T02:12:23.047Z,57595.03
2023-06-14T02:14:49.978Z,57561.63
2023-06-14T02:17:17.144Z,57534.50
2023-06-14T02:19:44.103Z,57565.81
2023-06-14T02:22:10.780Z,57534.50
2023-06-14T02:24:37.413Z,57559.53
2023-06-14T02:27:04.861Z,57574.16
2023-06-14T02:29:31.640Z,57578.31
2023-06-14T02:31:58.323Z,57547.00
2023-06-14T02:34:25.054Z,57588.75
2023-06-14T02:36:53.720Z,57588.75
2023-06-14T02:39:22.015Z,57559.53
2023-06-14T02:41:48.791Z,57559.53
2023-06-14T02:44:16.133Z,57555.38
2023-06-14T02:46:44.880Z,57565.81
2023-06-14T02:49:12.763Z,57549.09
2023-06-14T02:51:39.441Z,57584.59
2023-06-14T02:54:06.102Z,57584.59
2023-06-14T02:56:32.699Z,57542.84
2023-06-14T02:58:59.408Z,57574.16
2023-06-14T03:01:35.291Z,57542.84
2023-06-14T03:04:04.451Z,57565.81
2023-06-14T03:06:31.619Z,57609.63
2023-06-14T03:09:10.579Z,57561.63
2023-06-14T03:11:37.516Z,57557.44
2023-06-14T03:14:09.339Z,57576.22
2023-06-14T03:16:36.302Z,57559.53
2023-06-14T03:19:03.050Z,57601.28
2023-06-14T03:21:29.854Z,57555.38
2023-06-14T03:23:56.636Z,57567.88
2023-06-14T03:26:23.482Z,57532.41
2023-06-14T03:28:51.337Z,57605.47
2023-06-14T03:31:18.251Z,57592.94
2023-06-14T03:33:44.970Z,57592.94
2023-06-14T03:36:11.991Z,57565.81
2023-06-14T03:38:38.732Z,57599.19
2023-06-14T03:41:05.494Z,57526.13
2023-06-14T03:43:32.239Z,57569.97
2023-06-14T03:45:59.326Z,57576.22
2023-06-14T03:48:26.604Z,57561.63
2023-06-14T03:50:53.533Z,57547.00
2023-06-14T03:53:21.666Z,57611.72
2023-06-14T03:58:19.939Z,57559.53
2023-06-14T04:00:46.756Z,57580.41
2023-06-14T04:03:14.617Z,57567.88
2023-06-14T04:05:45.718Z,57588.75
2023-06-14T04:08:15.804Z,57580.41
2023-06-14T04:10:42.776Z,57567.88
2023-06-14T04:13:13.237Z,57603.38
2023-06-14T04:15:43.268Z,57553.28
2023-06-14T04:18:09.948Z,57557.44
2023-06-14T04:20:36.688Z,57557.44
2023-06-14T04:23:18.923Z,57555.38
2023-06-14T04:25:50.621Z,57551.19
2023-06-14T04:28:18.290Z,57505.25
2023-06-14T04:30:45.871Z,57563.72
2023-06-14T04:33:12.742Z,57507.34
2023-06-14T04:35:40.085Z,57517.78
2023-06-14T04:38:10.312Z,57503.19
2023-06-14T04:40:43.852Z,57515.69
2023-06-14T04:43:13.285Z,57507.34
2023-06-14T04:45:41.044Z,57471.88
2023-06-14T04:48:08.228Z,57503.19
2023-06-14T04:50:36.132Z,57451.00
2023-06-14T04:53:04.035Z,57482.31
2023-06-14T04:55:31.137Z,57521.97
2023-06-14T04:57:57.853Z,57488.56
2023-06-14T05:00:24.744Z,57463.53
2023-06-14T05:02:52.371Z,57463.53
2023-06-14T05:05:19.209Z,57488.56
2023-06-14T05:07:46.325Z,57473.97
2023-06-14T05:10:13.212Z,57467.69
2023-06-14T05:12:39.929Z,57503.19
2023-06-14T05:15:07.069Z,57503.19
2023-06-14T05:17:33.780Z,57473.97
2023-06-14T05:20:00.513Z,57469.78
2023-06-14T05:22:27.253Z,57551.19
2023-06-14T05:24:54.009Z,57536.56
2023-06-14T05:27:20.748Z,57490.66
2023-06-14T05:29:47.484Z,57544.94
2023-06-14T05:32:14.193Z,57499.00
2023-06-14T05:34:41.505Z,57471.88
2023-06-14T05:37:08.489Z,57492.75
2023-06-14T05:39:35.157Z,57538.66
2023-06-14T05:42:01.777Z,57511.53
2023-06-14T05:44:28.453Z,57538.66
2023-06-14T05:46:55.149Z,57521.97
2023-06-14T05:49:22.267Z,57513.63
2023-06-14T05:51:49.058Z,57536.56
2023-06-14T05:54:15.831Z,57538.66
2023-06-14T05:56:42.470Z,57496.91
2023-06-14T05:59:09.140Z,57559.53
2023-06-14T06:01:40.715Z,57519.88
2023-06-14T06:04:07.606Z,57567.88
2023-06-14T06:06:34.379Z,57557.44
2023-06-14T06:09:01.727Z,57578.31
2023-06-14T06:11:34.788Z,57532.41
2023-06-14T06:14:07.710Z,57584.59
2023-06-14T06:16:34.437Z,57555.38
2023-06-14T06:19:01.561Z,57586.66
2023-06-14T06:21:28.250Z,57553.28
2023-06-14T06:23:56.030Z,57569.97
2023-06-14T06:26:23.533Z,57563.72
2023-06-14T06:28:50.205Z,57530.31
2023-06-14T06:31:16.928Z,57569.97
2023-06-14T06:33:43.658Z,57542.84
2023-06-14T06:36:11.626Z,57559.53
2023-06-14T06:38:39.585Z,57549.09
2023-06-14T06:41:06.247Z,57563.72
2023-06-14T06:43:32.981Z,57574.16
2023-06-14T06:46:00.139Z,57565.81
2023-06-14T06:48:27.322Z,57563.72
2023-06-14T06:50:54.021Z,57528.22
2023-06-14T06:53:26.887Z,57515.69
2023-06-14T06:56:01.900Z,57536.56
2023-06-14T06:58:28.550Z,57521.97
2023-06-14T07:00:55.244Z,57555.38
2023-06-14T07:03:22.276Z,57488.56
2023-06-14T07:05:49.251Z,57492.75
2023-06-14T07:08:16.168Z,57494.81
2023-06-14T07:10:42.777Z,57515.69
2023-06-14T07:13:10.493Z,57517.78
2023-06-14T07:15:37.316Z,57484.41
2023-06-14T07:18:04.059Z,57484.41
2023-06-14T07:20:32.104Z,57511.53
2023-06-14T07:22:58.813Z,57494.81
2023-06-14T07:25:26.426Z,57519.88
2023-06-14T07:27:53.113Z,57509.44
2023-06-14T07:30:20.718Z,57480.22
2023-06-14T07:32:47.443Z,57540.75
2023-06-14T07:35:14.435Z,57530.31
2023-06-14T07:37:41.491Z,57463.53
2023-06-14T07:40:09.188Z,57517.78
2023-06-14T07:42:36.883Z,57482.31
2023-06-14T07:45:07.129Z,57524.06
2023-06-14T07:47:34.425Z,57496.91
2023-06-14T07:50:01.302Z,57482.31
2023-06-14T07:52:28.518Z,57507.34
2023-06-14T07:54:55.372Z,57511.53
2023-06-14T07:57:22.217Z,57561.63
2023-06-14T07:59:48.913Z,57490.66
2023-06-14T08:02:15.889Z,57536.56
2023-06-14T08:04:43.521Z,57490.66
2023-06-14T08:07:10.513Z,57505.25
2023-06-14T08:09:39.268Z,57428.03
2023-06-14T08:12:11.436Z,57471.88
2023-06-14T08:14:38.564Z,57455.16
2023-06-14T08:17:05.485Z,57503.19
2023-06-14T08:19:32.493Z,57469.78
2023-06-14T08:21:59.236Z,57467.69
2023-06-14T08:24:26.094Z,57499.00
2023-06-14T08:26:52.965Z,57496.91
2023-06-14T08:29:19.848Z,57480.22
2023-06-14T08:31:46.776Z,57459.34
2023-06-14T08:34:13.529Z,57486.47
2023-06-14T08:36:40.751Z,57476.03
2023-06-14T08:39:07.448Z,57451.00
2023-06-14T08:41:34.722Z,57455.16
2023-06-14T08:44:01.454Z,57471.88
2023-06-14T08:46:28.927Z,57471.88
2023-06-14T08:48:59.660Z,57488.56
2023-06-14T08:51:28.224Z,57428.03
2023-06-14T08:53:59.443Z,57400.91
2023-06-14T08:56:30.334Z,57484.41
2023-06-14T08:59:04.226Z,57455.16
2023-06-14T09:01:38.559Z,57486.47
2023-06-14T09:04:06.764Z,57467.69
2023-06-14T09:06:34.165Z,57513.63
2023-06-14T09:09:01.034Z,57511.53
2023-06-14T09:11:28.064Z,57476.03
2023-06-14T09:13:54.697Z,57451.00
2023-06-14T09:16:21.773Z,57423.88
2023-06-14T09:18:49.435Z,57417.59
2023-06-14T09:21:17.656Z,57473.97
2023-06-14T09:23:47.006Z,57442.66
2023-06-14T09:26:21.076Z,57407.16
2023-06-14T09:28:49.995Z,57425.94
2023-06-14T09:31:18.494Z,57457.25
2023-06-14T09:33:49.181Z,57430.13
2023-06-14T09:36:22.902Z,57442.66
2023-06-14T09:38:58.209Z,57444.72
2023-06-14T09:41:41.596Z,57499.00
2023-06-14T09:44:14.312Z,57509.44
2023-06-14T09:46:45.521Z,57440.56
2023-06-14T09:49:12.398Z,57455.16
2023-06-14T09:51:52.205Z,57453.09
2023-06-14T09:54:23.975Z,57501.09
2023-06-14T09:56:53.004Z,57482.31
2023-06-14T09:59:30.621Z,57471.88
2023-06-14T10:02:01.146Z,57515.69
2023-06-14T10:04:31.488Z,57442.66
2023-06-14T10:06:59.366Z,57451.00
2023-06-14T10:09:26.907Z,57490.66
2023-06-14T10:11:53.764Z,57490.66
2023-06-14T10:14:20.837Z,57463.53
2023-06-14T10:17:02.033Z,57494.81
2023-06-14T10:20:22.998Z,57536.56
2023-06-14T10:22:59.842Z,57515.69
2023-06-14T10:25:31.853Z,57469.78
2023-06-14T10:28:15.323Z,57505.25
2023-06-14T10:31:07.969Z,57499.00
2023-06-14T10:33:57.502Z,57499.00
2023-06-14T10:36:24.117Z,57494.81
2023-06-14T10:39:06.490Z,57486.47
2023-06-14T10:41:37.123Z,57536.56
2023-06-14T10:44:24.028Z,57469.78
2023-06-14T10:46:54.280Z,57463.53
2023-06-14T10:49:43.427Z,57509.44
2023-06-14T10:52:19.850Z,57496.91
2023-06-14T10:55:05.419Z,57476.03
2023-06-14T10:57:41.733Z,57484.41
2023-06-14T11:00:21.583Z,57515.69
2023-06-14T11:03:14.817Z,57513.63
2023-06-14T11:05:54.230Z,57459.34
2023-06-14T11:08:41.486Z,57494.81
2023-06-14T11:11:09.638Z,57496.91
2023-06-14T11:13:40.175Z,57486.47
2023-06-14T11:16:15.259Z,57486.47
2023-06-14T11:18:43.635Z,57513.63
2023-06-14T11:21:10.603Z,57469.78
2023-06-14T11:23:37.751Z,57528.22
2023-06-14T11:26:05.865Z,57509.44
2023-06-14T11:28:42.312Z,57526.13
2023-06-14T11:31:09.231Z,57526.13
2023-06-14T11:33:36.217Z,57517.78
2023-06-14T11:36:05.771Z,57507.34
2023-06-14T11:38:36.657Z,57515.69
2023-06-14T11:41:03.343Z,57517.78
2023-06-14T11:43:33.055Z,57509.44
2023-06-14T11:46:08.323Z,57440.56
2023-06-14T11:48:43.121Z,57476.03
2023-06-14T11:51:10.351Z,57511.53
2023-06-14T11:53:37.186Z,57488.56
2023-06-14T11:56:04.441Z,57430.13
2023-06-14T11:58:31.517Z,57486.47
2023-06-14T12:00:59.276Z,57499.00
2023-06-14T12:03:28.614Z,57482.31
2023-06-14T12:06:09.556Z,57478.13
2023-06-14T12:08:41.804Z,57448.91
2023-06-14T12:11:13.119Z,57461.44
2023-06-14T12:13:41.654Z,57494.81
2023-06-14T12:16:12.660Z,57494.81
2023-06-14T12:18:41.576Z,57480.22
2023-06-14T12:21:09.642Z,57448.91
2023-06-14T12:23:49.270Z,57494.81
2023-06-14T12:26:20.502Z,57457.25
2023-06-14T12:28:48.429Z,57471.88
2023-06-14T12:31:17.264Z,57473.97
2023-06-14T12:33:44.584Z,57482.31
2023-06-14T12:36:11.968Z,57471.88
2023-06-14T12:38:39.081Z,57494.81
2023-06-14T12:41:05.901Z,57488.56
2023-06-14T12:43:32.953Z,57476.03
2023-06-14T12:46:00.276Z,57471.88
2023-06-14T12:48:28.805Z,57465.59
2023-06-14T12:50:55.515Z,57476.03
2023-06-14T12:53:22.302Z,57480.22
2023-06-14T12:55:49.029Z,57478.13
2023-06-14T12:58:15.946Z,57484.41
2023-06-14T13:00:42.602Z,57496.91
2023-06-14T13:03:09.729Z,57494.81
2023-06-14T13:05:36.531Z,57484.41
2023-06-14T13:08:03.187Z,57501.09
2023-06-14T13:10:29.927Z,57538.66
2023-06-14T13:12:59.192Z,57501.09
2023-06-14T13:15:26.099Z,57461.44
2023-06-14T13:17:52.985Z,57478.13
2023-06-14T13:20:20.740Z,57499.00
2023-06-14T13:22:48.214Z,57490.66
2023-06-14T13:25:14.893Z,57480.22
2023-06-14T13:27:41.566Z,57463.53
2023-06-14T13:30:08.695Z,57509.44
2023-06-14T13:32:35.481Z,57530.31
2023-06-14T13:35:02.320Z,57524.06
2023-06-14T13:37:29.130Z,57526.13
2023-06-14T13:39:56.551Z,57499.00
2023-06-14T13:42:23.211Z,57513.63
2023-06-14T13:44:49.961Z,57532.41
2023-06-14T13:47:17.087Z,57542.84
2023-06-14T13:49:43.797Z,57563.72
2023-06-14T13:52:10.510Z,57561.63
2023-06-14T13:54:37.822Z,57496.91
2023-06-14T13:57:04.698Z,57547.00
2023-06-14T13:59:32.222Z,57544.94
2023-06-14T14:01:58.978Z,57540.75
2023-06-14T14:04:25.837Z,57561.63
2023-06-14T14:06:52.514Z,57538.66
2023-06-14T14:09:19.329Z,57532.41
2023-06-14T14:11:46.423Z,57513.63
2023-06-14T14:14:13.116Z,57526.13
2023-06-14T14:16:39.947Z,57526.13
2023-06-14T14:19:07.857Z,57501.09
2023-06-14T14:21:34.709Z,57505.25
2023-06-14T14:24:01.582Z,57526.13
2023-06-14T14:26:28.315Z,57521.97
2023-06-14T14:28:55.047Z,57492.75
2023-06-14T14:31:21.832Z,57528.22
2023-06-14T14:33:48.634Z,57476.03
2023-06-14T14:36:15.532Z,57521.97
2023-06-14T14:38:42.270Z,57576.22
2023-06-14T14:41:09.051Z,57582.50
2023-06-14T14:43:35.691Z,57563.72
2023-06-14T14:46:02.782Z,57534.50
2023-06-14T14:48:29.524Z,57521.97
2023-06-14T14:50:56.294Z,57515.69
2023-06-14T14:53:23.013Z,57530.31
2023-06-14T14:55:50.374Z,57507.34
2023-06-14T14:58:19.139Z,57553.28
2023-06-14T15:00:46.931Z,57542.84
2023-06-14T15:03:14.661Z,57503.19
2023-06-14T15:05:41.913Z,57557.44
2023-06-14T15:08:13.010Z,57559.53
2023-06-14T15:10:42.717Z,57563.72
2023-06-14T15:13:09.788Z,57496.91
2023-06-14T15:15:37.084Z,57561.63
2023-06-14T15:18:04.389Z,57540.75
2023-06-14T15:20:31.127Z,57549.09
2023-06-14T15:23:00.752Z,57563.72
2023-06-14T15:25:31.327Z,57544.94
2023-06-14T15:27:58.050Z,57538.66
2023-06-14T15:30:24.744Z,57515.69
2023-06-14T15:32:51.967Z,57538.66
2023-06-14T15:35:21.807Z,57526.13
2023-06-14T15:37:49.213Z,57530.31
2023-06-14T15:40:17.334Z,57563.72
2023-06-14T15:42:44.670Z,57557.44
2023-06-14T15:45:11.619Z,57574.16
2023-06-14T15:47:39.039Z,57530.31
2023-06-14T15:50:08.899Z,57555.38
2023-06-14T15:52:36.213Z,57544.94
2023-06-14T15:55:04.372Z,57526.13
2023-06-14T15:57:31.918Z,57549.09
2023-06-14T15:59:58.621Z,57509.44
2023-06-14T16:02:25.273Z,57549.09
2023-06-14T16:04:53.099Z,57509.44
2023-06-14T16:07:20.079Z,57561.63
2023-06-14T16:09:46.791Z,57530.31
2023-06-14T16:12:14.211Z,57530.31
2023-06-14T16:14:40.960Z,57521.97
2023-06-14T16:17:07.905Z,57507.34
2023-06-14T16:19:34.815Z,57542.84
2023-06-14T16:22:01.463Z,57542.84
2023-06-14T16:24:28.410Z,57532.41
2023-06-14T16:26:55.476Z,57507.34
2023-06-14T16:29:22.508Z,57490.66
2023-06-14T16:31:49.245Z,57551.19
2023-06-14T16:34:16.901Z,57524.06
2023-06-14T16:36:46.980Z,57542.84
2023-06-14T16:39:13.977Z,57484.41
2023-06-14T16:41:40.664Z,57538.66
2023-06-14T16:44:07.391Z,57530.31
2023-06-14T16:46:36.256Z,57524.06
2023-06-14T16:49:03.679Z,57526.13
2023-06-14T16:51:30.518Z,57532.41
2023-06-14T16:53:57.148Z,57551.19
2023-06-14T16:56:28.704Z,57553.28
2023-06-14T16:58:56.563Z,57538.66
2023-06-14T17:01:23.888Z,57521.97
2023-06-14T17:03:51.964Z,57553.28
2023-06-14T17:06:19.991Z,57528.22
2023-06-14T17:08:46.644Z,57519.88
2023-06-14T17:11:13.328Z,57557.44
2023-06-14T17:13:39.926Z,57499.00
2023-06-14T17:16:07.649Z,57499.00
2023-06-14T17:18:36.277Z,57538.66
2023-06-14T17:21:03.027Z,57590.84
2023-06-14T17:23:30.330Z,57547.00
2023-06-14T17:25:57.090Z,57513.63
2023-06-14T17:28:23.846Z,57551.19
2023-06-14T17:30:50.690Z,57536.56
2023-06-14T17:33:21.096Z,57584.59
2023-06-14T17:35:48.222Z,57509.44
2023-06-14T17:38:16.097Z,57551.19
2023-06-14T17:40:50.389Z,57572.06
2023-06-14T17:43:17.684Z,57574.16
2023-06-14T17:45:44.566Z,57532.41
2023-06-14T17:48:11.814Z,57555.38
2023-06-14T17:50:40.394Z,57511.53
2023-06-14T17:53:07.629Z,57524.06
2023-06-14T17:55:37.348Z,57517.78
2023-06-14T17:58:05.126Z,57542.84
2023-06-14T18:00:32.182Z,57509.44
2023-06-14T18:03:00.705Z,57519.88
2023-06-14T18:05:27.773Z,57553.28
2023-06-14T18:07:55.841Z,57540.75
2023-06-14T18:10:22.921Z,57530.31
2023-06-14T18:12:49.801Z,57496.91
2023-06-14T18:15:17.153Z,57528.22
2023-06-14T18:17:44.356Z,57528.22
2023-06-14T18:20:12.599Z,57528.22
2023-06-14T18:22:39.291Z,57499.00
2023-06-14T18:25:06.521Z,57503.19
2023-06-14T18:27:33.359Z,57511.53
2023-06-14T18:30:02.525Z,57532.41
2023-06-14T18:32:32.845Z,57492.75
2023-06-14T18:34:59.571Z,57521.97
2023-06-14T18:37:26.655Z,57480.22
2023-06-14T18:39:54.765Z,57488.56
2023-06-14T18:42:24.662Z,57484.41
2023-06-14T18:44:51.357Z,57555.38
2023-06-14T18:47:18.631Z,57549.09
2023-06-14T18:49:45.446Z,57561.63
2023-06-14T18:52:14.038Z,57521.97
2023-06-14T18:54:40.788Z,57524.06
2023-06-14T18:57:08.017Z,57515.69
2023-06-14T18:59:34.881Z,57521.97
2023-06-14T19:02:20.064Z,57513.63
2023-06-14T19:04:46.792Z,57503.19
2023-06-14T19:07:13.511Z,57521.97
2023-06-14T19:09:40.289Z,57519.88
2023-06-14T19:12:10.542Z,57567.88
2023-06-14T19:14:38.945Z,57501.09
2023-06-14T19:17:07.952Z,57505.25
2023-06-14T19:19:34.849Z,57507.34
2023-06-14T19:22:01.543Z,57542.84
2023-06-14T19:24:28.393Z,57524.06
2023-06-14T19:26:55.098Z,57521.97
2023-06-14T19:29:21.814Z,57503.19
2023-06-14T19:31:48.699Z,57519.88
2023-06-14T19:34:15.721Z,57494.81
2023-06-14T19:36:42.366Z,57513.63
2023-06-14T19:39:09.116Z,57507.34
2023-06-14T19:41:35.810Z,57534.50
2023-06-14T19:44:02.611Z,57501.09
2023-06-14T19:46:29.846Z,57547.00
2023-06-14T19:48:57.106Z,57524.06
2023-06-14T19:51:23.754Z,57530.31
2023-06-14T19:53:50.493Z,57595.03
2023-06-14T19:56:17.344Z,57490.66
2023-06-14T19:58:44.236Z,57540.75
2023-06-14T20:01:11.615Z,57524.06
2023-06-14T20:03:38.460Z,57549.09
2023-06-14T20:06:05.205Z,57524.06
2023-06-14T20:08:32.097Z,57530.31
2023-06-14T20:10:58.882Z,57521.97
2023-06-14T20:13:25.575Z,57555.38
2023-06-14T20:15:52.466Z,57574.16
2023-06-14T20:18:19.166Z,57542.84
2023-06-14T20:20:45.876Z,57532.41
2023-06-14T20:23:12.749Z,57542.84
2023-06-14T20:25:39.422Z,57526.13
2023-06-14T20:28:06.085Z,57494.81
2023-06-14T20:30:32.745Z,57528.22
2023-06-14T20:32:59.599Z,57538.66
2023-06-14T20:35:26.347Z,57490.66
2023-06-14T20:37:52.996Z,57499.00
2023-06-14T20:40:20.962Z,57538.66
2023-06-14T20:42:49.046Z,57534.50
2023-06-14T20:45:16.371Z,57538.66
2023-06-14T20:47:45.089Z,57563.72
2023-06-14T20:50:12.464Z,57534.50
2023-06-14T20:52:40.322Z,57553.28
2023-06-14T20:55:07.857Z,57563.72
2023-06-14T20:57:36.170Z,57536.56
2023-06-14T21:00:11.957Z,57524.06
2023-06-14T21:02:40.011Z,57551.19
2023-06-14T21:05:09.041Z,57538.66
2023-06-14T21:07:35.977Z,57555.38
2023-06-14T21:10:03.649Z,57555.38
2023-06-14T21:12:30.389Z,57507.34
2023-06-14T21:14:57.307Z,57536.56
2023-06-14T21:17:23.985Z,57569.97
2023-06-14T21:19:50.670Z,57567.88
2023-06-14T21:22:17.409Z,57542.84
2023-06-14T21:24:44.147Z,57576.22
2023-06-14T21:27:12.448Z,57540.75
2023-06-14T21:29:41.848Z,57572.06
2023-06-14T21:32:09.616Z,57592.94
2023-06-14T21:34:38.658Z,57524.06
2023-06-14T21:37:06.662Z,57530.31
2023-06-14T21:39:33.960Z,57576.22
2023-06-14T21:42:00.682Z,57603.38
2023-06-14T21:44:27.327Z,57507.34
2023-06-14T21:46:55.140Z,57519.88
2023-06-14T21:49:21.998Z,57584.59
2023-06-14T21:51:48.778Z,57507.34
2023-06-14T21:54:15.550Z,57534.50
2023-06-14T21:56:42.328Z,57513.63
2023-06-14T21:59:09.074Z,57553.28
2023-06-14T22:01:35.801Z,57549.09
2023-06-14T22:04:02.626Z,57549.09
2023-06-14T22:06:29.467Z,57584.59
2023-06-14T22:08:56.203Z,57563.72
2023-06-14T22:11:22.901Z,57574.16
2023-06-14T22:13:50.499Z,57590.84
2023-06-14T22:16:17.616Z,57553.28
2023-06-14T22:18:46.827Z,57597.09
2023-06-14T22:21:15.569Z,57559.53
2023-06-14T22:23:44.635Z,57532.41
2023-06-14T22:26:11.757Z,57590.84
2023-06-14T22:28:44.386Z,57557.44
2023-06-14T22:31:14.779Z,57599.19
2023-06-14T22:33:44.481Z,57580.41
2023-06-14T22:36:12.660Z,57584.59
2023-06-14T22:38:42.728Z,57555.38
2023-06-14T22:41:09.944Z,57580.41
2023-06-14T22:43:42.784Z,57567.88
2023-06-14T22:46:20.589Z,57567.88
2023-06-14T22:48:51.151Z,57557.44
2023-06-14T22:51:21.275Z,57509.44
2023-06-14T22:53:48.363Z,57530.31
2023-06-14T22:56:17.225Z,57597.09
2023-06-14T22:58:46.665Z,57536.56
2023-06-14T23:01:19.021Z,57565.81
2023-06-14T23:03:48.224Z,57628.41
2023-06-14T23:06:18.064Z,57549.09
2023-06-14T23:08:45.403Z,57555.38
2023-06-14T23:11:14.285Z,57588.75
2023-06-14T23:13:49.933Z,57534.50
2023-06-14T23:16:18.699Z,57569.97
2023-06-14T23:18:47.413Z,57567.88
2023-06-14T23:21:14.794Z,57567.88
2023-06-14T23:23:41.524Z,57601.28
2023-06-14T23:26:09.564Z,57572.06
2023-06-14T23:28:38.602Z,57547.00
2023-06-14T23:31:08.728Z,57542.84
2023-06-14T23:33:35.623Z,57580.41
2023-06-14T23:36:04.639Z,57567.88
2023-06-14T23:38:32.151Z,57567.88
2023-06-14T23:41:00.503Z,57488.56
2023-06-14T23:43:28.382Z,57521.97
2023-06-14T23:45:56.870Z,57580.41
2023-06-14T23:48:28.085Z,57544.94
2023-06-14T23:50:55.873Z,57549.09
2023-06-14T23:53:24.208Z,57595.03
2023-06-14T23:55:53.948Z,57582.50
2023-06-14T23:58:21.986Z,57540.75
